sensor_id;sensor_type;location;lat;lon;timestamp;temperature;humidity
16732;DHT22;8484;50.904;9.192;2023-04-24T00:00:18;10.90;99.90
16732;DHT22;8484;50.904;9.192;2023-04-24T00:02:45;10.90;99.90
16732;DHT22;8484;50.904;9.192;2023-04-24T00:05:13;10.90;99.90
16732;DHT22;8484;50.904;9.192;2023-04-24T00:07:40;10.90;99.90
16732;DHT22;8484;50.904;9.192;2023-04-24T00:10:08;10.90;99.90
16732;DHT22;8484;50.904;9.192;2023-04-24T00:12:36;10.90;99.90
16732;DHT22;8484;50.904;9.192;2023-04-24T00:15:05;11.00;99.90
16732;DHT22;8484;50.904;9.192;2023-04-24T00:17:32;10.90;99.90
16732;DHT22;8484;50.904;9.192;2023-04-24T00:19:59;10.90;99.90
16732;DHT22;8484;50.904;9.192;2023-04-24T00:22:28;10.80;99.90
16732;DHT22;8484;50.904;9.192;2023-04-24T00:24:55;10.80;99.90
16732;DHT22;8484;50.904;9.192;2023-04-24T00:27:22;10.80;99.90
16732;DHT22;8484;50.904;9.192;2023-04-24T00:29:49;10.70;99.90
16732;DHT22;8484;50.904;9.192;2023-04-24T00:32:24;10.80;99.90
16732;DHT22;8484;50.904;9.192;2023-04-24T00:34:51;10.80;99.90
16732;DHT22;8484;50.904;9.192;2023-04-24T00:37:18;10.80;99.90
16732;DHT22;8484;50.904;9.192;2023-04-24T00:39:45;10.70;99.90
16732;DHT22;8484;50.904;9.192;2023-04-24T00:42:12;10.70;99.90
16732;DHT22;8484;50.904;9.192;2023-04-24T00:44:39;10.70;99.90
16732;DHT22;8484;50.904;9.192;2023-04-24T00:47:05;10.70;99.90
16732;DHT22;8484;50.904;9.192;2023-04-24T00:49:41;10.60;99.90
16732;DHT22;8484;50.904;9.192;2023-04-24T00:52:08;10.70;99.90
16732;DHT22;8484;50.904;9.192;2023-04-24T00:54:35;10.70;99.90
16732;DHT22;8484;50.904;9.192;2023-04-24T00:57:02;10.70;99.90
16732;DHT22;8484;50.904;9.192;2023-04-24T00:59:29;10.70;99.90
16732;DHT22;8484;50.904;9.192;2023-04-24T01:01:56;10.70;99.90
16732;DHT22;8484;50.904;9.192;2023-04-24T01:04:24;10.70;99.90
16732;DHT22;8484;50.904;9.192;2023-04-24T01:06:53;10.60;99.90
16732;DHT22;8484;50.904;9.192;2023-04-24T01:09:22;10.60;99.90
16732;DHT22;8484;50.904;9.192;2023-04-24T01:11:50;10.70;99.90
16732;DHT22;8484;50.904;9.192;2023-04-24T01:14:17;10.70;99.90
16732;DHT22;8484;50.904;9.192;2023-04-24T01:16:44;10.70;99.90
16732;DHT22;8484;50.904;9.192;2023-04-24T01:19:10;10.70;99.90
16732;DHT22;8484;50.904;9.192;2023-04-24T01:21:38;10.70;99.90
16732;DHT22;8484;50.904;9.192;2023-04-24T01:24:07;10.70;99.90
16732;DHT22;8484;50.904;9.192;2023-04-24T01:26:34;10.60;99.90
16732;DHT22;8484;50.904;9.192;2023-04-24T01:29:03;10.60;99.90
16732;DHT22;8484;50.904;9.192;2023-04-24T01:31:30;10.60;99.90
16732;DHT22;8484;50.904;9.192;2023-04-24T01:33:57;10.60;99.90
16732;DHT22;8484;50.904;9.192;2023-04-24T01:36:24;10.50;99.90
16732;DHT22;8484;50.904;9.192;2023-04-24T01:38:53;10.50;99.90
16732;DHT22;8484;50.904;9.192;2023-04-24T01:41:21;10.40;99.90
16732;DHT22;8484;50.904;9.192;2023-04-24T01:43:49;10.50;99.90
16732;DHT22;8484;50.904;9.192;2023-04-24T01:46:16;10.40;99.90
16732;DHT22;8484;50.904;9.192;2023-04-24T01:48:44;10.50;99.90
16732;DHT22;8484;50.904;9.192;2023-04-24T01:51:11;10.40;99.90
16732;DHT22;8484;50.904;9.192;2023-04-24T01:53:38;10.40;99.90
16732;DHT22;8484;50.904;9.192;2023-04-24T01:56:05;10.40;99.90
16732;DHT22;8484;50.904;9.192;2023-04-24T01:58:34;10.50;99.90
16732;DHT22;8484;50.904;9.192;2023-04-24T02:01:01;10.50;99.90
16732;DHT22;8484;50.904;9.192;2023-04-24T02:03:28;10.50;99.90
16732;DHT22;8484;50.904;9.192;2023-04-24T02:05:55;10.50;99.90
16732;DHT22;8484;50.904;9.192;2023-04-24T02:08:22;10.60;99.90
16732;DHT22;8484;50.904;9.192;2023-04-24T02:10:49;10.60;99.90
16732;DHT22;8484;50.904;9.192;2023-04-24T02:13:16;10.60;99.90
16732;DHT22;8484;50.904;9.192;2023-04-24T02:15:44;10.60;99.90
16732;DHT22;8484;50.904;9.192;2023-04-24T02:18:11;10.60;99.90
16732;DHT22;8484;50.904;9.192;2023-04-24T02:20:38;10.60;99.90
16732;DHT22;8484;50.904;9.192;2023-04-24T02:23:05;10.60;99.90
16732;DHT22;8484;50.904;9.192;2023-04-24T02:25:32;10.60;99.90
16732;DHT22;8484;50.904;9.192;2023-04-24T02:27:59;10.60;99.90
16732;DHT22;8484;50.904;9.192;2023-04-24T02:30:26;10.60;99.90
16732;DHT22;8484;50.904;9.192;2023-04-24T02:32:54;10.60;99.90
16732;DHT22;8484;50.904;9.192;2023-04-24T02:35:21;10.60;99.90
16732;DHT22;8484;50.904;9.192;2023-04-24T02:37:48;10.60;99.90
16732;DHT22;8484;50.904;9.192;2023-04-24T02:40:15;10.60;99.90
16732;DHT22;8484;50.904;9.192;2023-04-24T02:42:42;10.60;99.90
16732;DHT22;8484;50.904;9.192;2023-04-24T02:45:10;10.70;99.90
16732;DHT22;8484;50.904;9.192;2023-04-24T02:47:37;10.60;99.90
16732;DHT22;8484;50.904;9.192;2023-04-24T02:50:07;10.60;99.90
16732;DHT22;8484;50.904;9.192;2023-04-24T02:52:33;10.40;99.90
16732;DHT22;8484;50.904;9.192;2023-04-24T02:55:00;10.30;99.90
16732;DHT22;8484;50.904;9.192;2023-04-24T02:57:27;10.00;99.90
16732;DHT22;8484;50.904;9.192;2023-04-24T02:59:54;10.00;99.90
16732;DHT22;8484;50.904;9.192;2023-04-24T03:02:21;9.90;99.90
16732;DHT22;8484;50.904;9.192;2023-04-24T03:04:48;9.90;99.90
16732;DHT22;8484;50.904;9.192;2023-04-24T03:07:16;9.80;99.90
16732;DHT22;8484;50.904;9.192;2023-04-24T03:09:46;9.80;99.90
16732;DHT22;8484;50.904;9.192;2023-04-24T03:12:13;9.70;99.90
16732;DHT22;8484;50.904;9.192;2023-04-24T03:14:40;9.80;99.90
16732;DHT22;8484;50.904;9.192;2023-04-24T03:17:06;9.70;99.90
16732;DHT22;8484;50.904;9.192;2023-04-24T03:19:33;9.70;99.90
16732;DHT22;8484;50.904;9.192;2023-04-24T03:22:01;9.70;99.90
16732;DHT22;8484;50.904;9.192;2023-04-24T03:24:30;9.70;99.90
16732;DHT22;8484;50.904;9.192;2023-04-24T03:26:57;9.70;99.90
16732;DHT22;8484;50.904;9.192;2023-04-24T03:29:24;9.70;99.90
16732;DHT22;8484;50.904;9.192;2023-04-24T03:31:50;9.70;99.90
16732;DHT22;8484;50.904;9.192;2023-04-24T03:34:18;9.60;99.90
16732;DHT22;8484;50.904;9.192;2023-04-24T03:36:45;9.60;99.90
16732;DHT22;8484;50.904;9.192;2023-04-24T03:39:14;9.60;99.90
16732;DHT22;8484;50.904;9.192;2023-04-24T03:41:42;9.50;99.90
16732;DHT22;8484;50.904;9.192;2023-04-24T03:44:09;9.50;99.90
16732;DHT22;8484;50.904;9.192;2023-04-24T03:46:36;9.50;99.90
16732;DHT22;8484;50.904;9.192;2023-04-24T03:49:03;9.50;99.90
16732;DHT22;8484;50.904;9.192;2023-04-24T03:51:30;9.50;99.90
16732;DHT22;8484;50.904;9.192;2023-04-24T03:53:57;9.40;99.90
16732;DHT22;8484;50.904;9.192;2023-04-24T03:56:24;9.40;99.90
16732;DHT22;8484;50.904;9.192;2023-04-24T03:58:52;9.40;99.90
16732;DHT22;8484;50.904;9.192;2023-04-24T04:01:23;9.30;99.90
16732;DHT22;8484;50.904;9.192;2023-04-24T04:03:50;9.40;99.90
16732;DHT22;8484;50.904;9.192;2023-04-24T04:06:18;9.30;99.90
16732;DHT22;8484;50.904;9.192;2023-04-24T04:08:47;9.30;99.90
16732;DHT22;8484;50.904;9.192;2023-04-24T04:11:13;9.30;99.90
16732;DHT22;8484;50.904;9.192;2023-04-24T04:13:41;9.30;99.90
16732;DHT22;8484;50.904;9.192;2023-04-24T04:16:10;9.30;99.90
16732;DHT22;8484;50.904;9.192;2023-04-24T04:18:36;9.30;99.90
16732;DHT22;8484;50.904;9.192;2023-04-24T04:21:03;9.30;99.90
16732;DHT22;8484;50.904;9.192;2023-04-24T04:23:31;9.20;99.90
16732;DHT22;8484;50.904;9.192;2023-04-24T04:25:58;9.20;99.90
16732;DHT22;8484;50.904;9.192;2023-04-24T04:28:25;9.30;99.90
16732;DHT22;8484;50.904;9.192;2023-04-24T04:30:52;9.40;99.90
16732;DHT22;8484;50.904;9.192;2023-04-24T04:33:22;9.50;99.90
16732;DHT22;8484;50.904;9.192;2023-04-24T04:35:49;9.50;99.90
16732;DHT22;8484;50.904;9.192;2023-04-24T04:38:17;9.60;99.90
16732;DHT22;8484;50.904;9.192;2023-04-24T04:40:45;9.60;99.90
16732;DHT22;8484;50.904;9.192;2023-04-24T04:43:12;9.60;99.90
16732;DHT22;8484;50.904;9.192;2023-04-24T04:45:40;9.60;99.90
16732;DHT22;8484;50.904;9.192;2023-04-24T04:48:08;9.60;99.90
16732;DHT22;8484;50.904;9.192;2023-04-24T04:50:39;9.60;99.90
16732;DHT22;8484;50.904;9.192;2023-04-24T04:53:06;9.60;99.90
16732;DHT22;8484;50.904;9.192;2023-04-24T04:55:33;9.60;99.90
16732;DHT22;8484;50.904;9.192;2023-04-24T04:58:00;9.60;99.90
16732;DHT22;8484;50.904;9.192;2023-04-24T05:00:27;9.50;99.90
16732;DHT22;8484;50.904;9.192;2023-04-24T05:02:54;9.60;99.90
16732;DHT22;8484;50.904;9.192;2023-04-24T05:05:21;9.50;99.90
16732;DHT22;8484;50.904;9.192;2023-04-24T05:07:49;9.50;99.90
16732;DHT22;8484;50.904;9.192;2023-04-24T05:10:16;9.40;99.90
16732;DHT22;8484;50.904;9.192;2023-04-24T05:12:43;9.40;99.90
16732;DHT22;8484;50.904;9.192;2023-04-24T05:15:10;9.40;99.90
16732;DHT22;8484;50.904;9.192;2023-04-24T05:17:37;9.40;99.90
16732;DHT22;8484;50.904;9.192;2023-04-24T05:20:06;9.40;99.90
16732;DHT22;8484;50.904;9.192;2023-04-24T05:22:33;9.40;99.90
16732;DHT22;8484;50.904;9.192;2023-04-24T05:25:01;9.40;99.90
16732;DHT22;8484;50.904;9.192;2023-04-24T05:27:28;9.30;99.90
16732;DHT22;8484;50.904;9.192;2023-04-24T05:29:55;9.30;99.90
16732;DHT22;8484;50.904;9.192;2023-04-24T05:32:22;9.40;99.90
16732;DHT22;8484;50.904;9.192;2023-04-24T05:34:49;9.40;99.90
16732;DHT22;8484;50.904;9.192;2023-04-24T05:37:16;9.50;99.90
16732;DHT22;8484;50.904;9.192;2023-04-24T05:39:42;9.50;99.90
16732;DHT22;8484;50.904;9.192;2023-04-24T05:42:11;9.50;99.90
16732;DHT22;8484;50.904;9.192;2023-04-24T05:44:38;9.60;99.90
16732;DHT22;8484;50.904;9.192;2023-04-24T05:47:04;9.50;99.90
16732;DHT22;8484;50.904;9.192;2023-04-24T05:49:31;9.60;99.90
16732;DHT22;8484;50.904;9.192;2023-04-24T05:51:58;9.70;99.90
16732;DHT22;8484;50.904;9.192;2023-04-24T05:54:25;9.70;99.90
16732;DHT22;8484;50.904;9.192;2023-04-24T05:56:52;9.70;99.90
16732;DHT22;8484;50.904;9.192;2023-04-24T05:59:22;9.70;99.90
16732;DHT22;8484;50.904;9.192;2023-04-24T06:01:49;9.70;99.90
16732;DHT22;8484;50.904;9.192;2023-04-24T06:04:16;9.80;99.90
16732;DHT22;8484;50.904;9.192;2023-04-24T06:06:42;9.70;99.90
16732;DHT22;8484;50.904;9.192;2023-04-24T06:09:09;9.80;99.90
16732;DHT22;8484;50.904;9.192;2023-04-24T06:11:37;9.80;99.90
16732;DHT22;8484;50.904;9.192;2023-04-24T06:14:04;9.70;99.90
16732;DHT22;8484;50.904;9.192;2023-04-24T06:16:32;9.80;99.90
16732;DHT22;8484;50.904;9.192;2023-04-24T06:18:59;9.70;99.90
16732;DHT22;8484;50.904;9.192;2023-04-24T06:21:25;9.70;99.90
16732;DHT22;8484;50.904;9.192;2023-04-24T06:23:53;10.10;99.90
16732;DHT22;8484;50.904;9.192;2023-04-24T06:26:22;10.20;99.90
16732;DHT22;8484;50.904;9.192;2023-04-24T06:28:50;10.40;99.90
16732;DHT22;8484;50.904;9.192;2023-04-24T06:31:17;10.30;99.90
16732;DHT22;8484;50.904;9.192;2023-04-24T06:33:45;10.40;99.90
16732;DHT22;8484;50.904;9.192;2023-04-24T06:36:12;10.30;99.90
16732;DHT22;8484;50.904;9.192;2023-04-24T06:38:38;10.50;99.90
16732;DHT22;8484;50.904;9.192;2023-04-24T06:41:05;10.30;99.90
16732;DHT22;8484;50.904;9.192;2023-04-24T06:43:33;10.20;99.90
16732;DHT22;8484;50.904;9.192;2023-04-24T06:46:00;10.30;99.90
16732;DHT22;8484;50.904;9.192;2023-04-24T06:48:29;10.20;99.90
16732;DHT22;8484;50.904;9.192;2023-04-24T06:50:57;10.30;99.90
16732;DHT22;8484;50.904;9.192;2023-04-24T06:53:24;10.40;99.90
16732;DHT22;8484;50.904;9.192;2023-04-24T06:55:51;10.60;99.90
16732;DHT22;8484;50.904;9.192;2023-04-24T06:58:18;10.40;99.90
16732;DHT22;8484;50.904;9.192;2023-04-24T07:00:45;10.40;99.90
16732;DHT22;8484;50.904;9.192;2023-04-24T07:03:12;10.30;99.90
16732;DHT22;8484;50.904;9.192;2023-04-24T07:05:39;10.20;99.90
16732;DHT22;8484;50.904;9.192;2023-04-24T07:08:08;10.10;99.90
16732;DHT22;8484;50.904;9.192;2023-04-24T07:10:37;10.00;99.90
16732;DHT22;8484;50.904;9.192;2023-04-24T07:13:04;10.30;99.90
16732;DHT22;8484;50.904;9.192;2023-04-24T07:15:32;10.40;99.90
16732;DHT22;8484;50.904;9.192;2023-04-24T07:17:59;10.30;99.90
16732;DHT22;8484;50.904;9.192;2023-04-24T07:20:26;10.30;99.90
16732;DHT22;8484;50.904;9.192;2023-04-24T07:22:53;10.30;99.90
16732;DHT22;8484;50.904;9.192;2023-04-24T07:25:21;10.30;99.90
16732;DHT22;8484;50.904;9.192;2023-04-24T07:27:48;10.30;99.90
16732;DHT22;8484;50.904;9.192;2023-04-24T07:30:15;10.30;99.90
16732;DHT22;8484;50.904;9.192;2023-04-24T07:32:42;10.50;99.90
16732;DHT22;8484;50.904;9.192;2023-04-24T07:35:09;10.80;99.90
16732;DHT22;8484;50.904;9.192;2023-04-24T07:37:36;10.80;99.90
16732;DHT22;8484;50.904;9.192;2023-04-24T07:40:03;10.90;99.90
16732;DHT22;8484;50.904;9.192;2023-04-24T07:42:32;10.70;99.90
16732;DHT22;8484;50.904;9.192;2023-04-24T07:45:00;11.10;99.90
16732;DHT22;8484;50.904;9.192;2023-04-24T07:47:27;11.20;99.90
16732;DHT22;8484;50.904;9.192;2023-04-24T07:49:54;11.30;99.90
16732;DHT22;8484;50.904;9.192;2023-04-24T07:52:21;11.20;99.90
16732;DHT22;8484;50.904;9.192;2023-04-24T07:54:48;11.20;99.90
16732;DHT22;8484;50.904;9.192;2023-04-24T07:57:15;11.40;99.90
16732;DHT22;8484;50.904;9.192;2023-04-24T07:59:43;11.60;99.90
16732;DHT22;8484;50.904;9.192;2023-04-24T08:02:10;11.70;99.90
16732;DHT22;8484;50.904;9.192;2023-04-24T08:04:37;11.40;99.90
16732;DHT22;8484;50.904;9.192;2023-04-24T08:07:04;11.90;99.90
16732;DHT22;8484;50.904;9.192;2023-04-24T08:09:31;11.80;99.90
16732;DHT22;8484;50.904;9.192;2023-04-24T08:11:58;11.50;99.90
16732;DHT22;8484;50.904;9.192;2023-04-24T08:14:25;11.30;99.90
16732;DHT22;8484;50.904;9.192;2023-04-24T08:16:53;12.00;99.90
16732;DHT22;8484;50.904;9.192;2023-04-24T08:19:21;11.90;99.90
16732;DHT22;8484;50.904;9.192;2023-04-24T08:21:48;12.00;99.90
16732;DHT22;8484;50.904;9.192;2023-04-24T08:24:15;11.60;99.90
16732;DHT22;8484;50.904;9.192;2023-04-24T08:26:41;11.80;99.90
16732;DHT22;8484;50.904;9.192;2023-04-24T08:29:09;12.40;99.90
16732;DHT22;8484;50.904;9.192;2023-04-24T08:31:36;11.80;99.90
16732;DHT22;8484;50.904;9.192;2023-04-24T08:34:04;11.30;99.90
16732;DHT22;8484;50.904;9.192;2023-04-24T08:36:31;11.10;99.90
16732;DHT22;8484;50.904;9.192;2023-04-24T08:38:59;11.20;99.90
16732;DHT22;8484;50.904;9.192;2023-04-24T08:41:27;11.20;99.90
16732;DHT22;8484;50.904;9.192;2023-04-24T08:43:55;11.20;99.90
16732;DHT22;8484;50.904;9.192;2023-04-24T08:46:24;11.50;99.90
16732;DHT22;8484;50.904;9.192;2023-04-24T08:48:52;11.40;99.90
16732;DHT22;8484;50.904;9.192;2023-04-24T08:51:20;11.20;99.90
16732;DHT22;8484;50.904;9.192;2023-04-24T08:53:48;10.80;99.90
16732;DHT22;8484;50.904;9.192;2023-04-24T08:56:16;10.80;99.90
16732;DHT22;8484;50.904;9.192;2023-04-24T08:58:43;10.80;99.90
16732;DHT22;8484;50.904;9.192;2023-04-24T09:01:11;10.60;99.90
16732;DHT22;8484;50.904;9.192;2023-04-24T09:03:39;10.50;99.90
16732;DHT22;8484;50.904;9.192;2023-04-24T09:06:06;10.40;99.90
16732;DHT22;8484;50.904;9.192;2023-04-24T09:08:36;10.40;99.90
16732;DHT22;8484;50.904;9.192;2023-04-24T09:11:03;10.40;99.90
16732;DHT22;8484;50.904;9.192;2023-04-24T09:13:30;10.50;99.90
16732;DHT22;8484;50.904;9.192;2023-04-24T09:15:58;10.60;99.90
16732;DHT22;8484;50.904;9.192;2023-04-24T09:18:26;10.80;99.90
16732;DHT22;8484;50.904;9.192;2023-04-24T09:21:01;11.00;99.90
16732;DHT22;8484;50.904;9.192;2023-04-24T09:23:29;10.90;99.90
16732;DHT22;8484;50.904;9.192;2023-04-24T09:25:58;11.00;99.90
16732;DHT22;8484;50.904;9.192;2023-04-24T09:28:27;11.10;99.90
16732;DHT22;8484;50.904;9.192;2023-04-24T09:31:02;11.10;99.90
16732;DHT22;8484;50.904;9.192;2023-04-24T09:33:29;11.20;99.90
16732;DHT22;8484;50.904;9.192;2023-04-24T09:35:56;11.10;99.90
16732;DHT22;8484;50.904;9.192;2023-04-24T09:38:31;10.80;99.90
16732;DHT22;8484;50.904;9.192;2023-04-24T09:41:01;10.90;99.90
16732;DHT22;8484;50.904;9.192;2023-04-24T09:43:29;10.90;99.90
16732;DHT22;8484;50.904;9.192;2023-04-24T09:45:57;10.80;99.90
16732;DHT22;8484;50.904;9.192;2023-04-24T09:48:31;10.90;99.90
16732;DHT22;8484;50.904;9.192;2023-04-24T09:50:59;10.90;99.90
16732;DHT22;8484;50.904;9.192;2023-04-24T09:53:27;10.80;99.90
16732;DHT22;8484;50.904;9.192;2023-04-24T09:55:54;10.90;99.90
16732;DHT22;8484;50.904;9.192;2023-04-24T09:58:26;11.10;99.90
16732;DHT22;8484;50.904;9.192;2023-04-24T10:00:54;11.40;99.90
16732;DHT22;8484;50.904;9.192;2023-04-24T10:03:25;11.90;99.90
16732;DHT22;8484;50.904;9.192;2023-04-24T10:05:53;11.80;99.90
16732;DHT22;8484;50.904;9.192;2023-04-24T10:08:21;11.80;99.90
16732;DHT22;8484;50.904;9.192;2023-04-24T10:10:48;11.40;99.90
16732;DHT22;8484;50.904;9.192;2023-04-24T10:13:15;11.30;99.90
16732;DHT22;8484;50.904;9.192;2023-04-24T10:15:44;11.50;99.90
16732;DHT22;8484;50.904;9.192;2023-04-24T10:18:12;11.30;99.90
16732;DHT22;8484;50.904;9.192;2023-04-24T10:20:40;11.40;99.90
16732;DHT22;8484;50.904;9.192;2023-04-24T10:23:07;11.00;99.90
16732;DHT22;8484;50.904;9.192;2023-04-24T10:25:35;10.80;99.90
16732;DHT22;8484;50.904;9.192;2023-04-24T10:28:04;10.50;99.90
16732;DHT22;8484;50.904;9.192;2023-04-24T10:30:33;10.50;99.90
16732;DHT22;8484;50.904;9.192;2023-04-24T10:33:03;10.50;99.90
16732;DHT22;8484;50.904;9.192;2023-04-24T10:35:31;10.40;99.90
16732;DHT22;8484;50.904;9.192;2023-04-24T10:38:01;10.30;99.90
16732;DHT22;8484;50.904;9.192;2023-04-24T10:40:31;10.20;99.90
16732;DHT22;8484;50.904;9.192;2023-04-24T10:42:59;10.30;99.90
16732;DHT22;8484;50.904;9.192;2023-04-24T10:45:26;10.10;99.90
16732;DHT22;8484;50.904;9.192;2023-04-24T10:47:57;10.00;99.90
16732;DHT22;8484;50.904;9.192;2023-04-24T10:50:28;9.90;99.90
16732;DHT22;8484;50.904;9.192;2023-04-24T10:53:06;9.70;99.90
16732;DHT22;8484;50.904;9.192;2023-04-24T10:55:40;9.80;99.90
16732;DHT22;8484;50.904;9.192;2023-04-24T10:58:07;9.90;99.90
16732;DHT22;8484;50.904;9.192;2023-04-24T11:00:36;9.80;99.90
16732;DHT22;8484;50.904;9.192;2023-04-24T11:03:05;9.80;99.90
16732;DHT22;8484;50.904;9.192;2023-04-24T11:05:53;9.80;99.90
16732;DHT22;8484;50.904;9.192;2023-04-24T11:08:32;9.80;99.90
16732;DHT22;8484;50.904;9.192;2023-04-24T11:11:08;9.90;99.90
16732;DHT22;8484;50.904;9.192;2023-04-24T11:14:01;9.90;99.90
16732;DHT22;8484;50.904;9.192;2023-04-24T11:16:30;9.90;99.90
16732;DHT22;8484;50.904;9.192;2023-04-24T11:19:03;10.20;99.90
16732;DHT22;8484;50.904;9.192;2023-04-24T11:21:39;10.20;99.90
16732;DHT22;8484;50.904;9.192;2023-04-24T11:24:30;10.10;99.90
16732;DHT22;8484;50.904;9.192;2023-04-24T11:26:59;10.30;99.90
16732;DHT22;8484;50.904;9.192;2023-04-24T11:29:42;10.40;99.90
16732;DHT22;8484;50.904;9.192;2023-04-24T11:32:17;10.00;99.90
16732;DHT22;8484;50.904;9.192;2023-04-24T11:34:49;9.90;99.90
16732;DHT22;8484;50.904;9.192;2023-04-24T11:37:18;10.10;99.90
16732;DHT22;8484;50.904;9.192;2023-04-24T11:39:45;10.00;99.90
16732;DHT22;8484;50.904;9.192;2023-04-24T11:42:14;10.20;99.90
16732;DHT22;8484;50.904;9.192;2023-04-24T11:44:41;10.70;99.90
16732;DHT22;8484;50.904;9.192;2023-04-24T11:47:08;11.10;99.90
16732;DHT22;8484;50.904;9.192;2023-04-24T11:49:36;10.80;99.90
16732;DHT22;8484;50.904;9.192;2023-04-24T11:52:04;10.20;99.90
16732;DHT22;8484;50.904;9.192;2023-04-24T11:54:32;10.10;99.90
16732;DHT22;8484;50.904;9.192;2023-04-24T11:56:59;10.60;99.90
16732;DHT22;8484;50.904;9.192;2023-04-24T11:59:30;10.40;99.90
16732;DHT22;8484;50.904;9.192;2023-04-24T12:02:01;10.20;99.90
16732;DHT22;8484;50.904;9.192;2023-04-24T12:04:38;10.20;99.90
16732;DHT22;8484;50.904;9.192;2023-04-24T12:07:06;10.50;99.90
16732;DHT22;8484;50.904;9.192;2023-04-24T12:09:46;10.70;99.90
16732;DHT22;8484;50.904;9.192;2023-04-24T12:12:13;10.40;99.90
16732;DHT22;8484;50.904;9.192;2023-04-24T12:14:48;10.30;99.90
16732;DHT22;8484;50.904;9.192;2023-04-24T12:17:16;10.50;99.90
16732;DHT22;8484;50.904;9.192;2023-04-24T12:19:46;10.20;99.90
16732;DHT22;8484;50.904;9.192;2023-04-24T12:22:14;10.10;99.90
16732;DHT22;8484;50.904;9.192;2023-04-24T12:24:59;10.20;99.90
16732;DHT22;8484;50.904;9.192;2023-04-24T12:27:29;10.10;99.90
16732;DHT22;8484;50.904;9.192;2023-04-24T12:29:57;10.20;99.90
16732;DHT22;8484;50.904;9.192;2023-04-24T12:32:25;10.00;99.90
16732;DHT22;8484;50.904;9.192;2023-04-24T12:34:52;10.00;99.90
16732;DHT22;8484;50.904;9.192;2023-04-24T12:37:20;10.00;99.90
16732;DHT22;8484;50.904;9.192;2023-04-24T12:40:04;10.00;99.90
16732;DHT22;8484;50.904;9.192;2023-04-24T12:42:33;10.00;99.90
16732;DHT22;8484;50.904;9.192;2023-04-24T12:45:03;10.10;99.90
16732;DHT22;8484;50.904;9.192;2023-04-24T12:47:31;10.40;99.90
16732;DHT22;8484;50.904;9.192;2023-04-24T12:49:58;10.40;99.90
16732;DHT22;8484;50.904;9.192;2023-04-24T12:52:26;10.50;99.90
16732;DHT22;8484;50.904;9.192;2023-04-24T12:54:55;10.70;99.90
16732;DHT22;8484;50.904;9.192;2023-04-24T12:57:24;10.60;99.90
16732;DHT22;8484;50.904;9.192;2023-04-24T12:59:53;10.30;99.90
16732;DHT22;8484;50.904;9.192;2023-04-24T13:02:20;10.20;99.90
16732;DHT22;8484;50.904;9.192;2023-04-24T13:04:48;10.10;99.90
16732;DHT22;8484;50.904;9.192;2023-04-24T13:07:15;10.40;99.90
16732;DHT22;8484;50.904;9.192;2023-04-24T13:09:42;10.40;99.90
16732;DHT22;8484;50.904;9.192;2023-04-24T13:12:10;10.50;99.90
16732;DHT22;8484;50.904;9.192;2023-04-24T13:14:39;10.80;99.90
16732;DHT22;8484;50.904;9.192;2023-04-24T13:17:06;10.50;99.90
16732;DHT22;8484;50.904;9.192;2023-04-24T13:19:36;10.60;99.90
16732;DHT22;8484;50.904;9.192;2023-04-24T13:22:05;10.60;99.90
16732;DHT22;8484;50.904;9.192;2023-04-24T13:24:33;10.70;99.90
16732;DHT22;8484;50.904;9.192;2023-04-24T13:27:00;10.70;99.90
16732;DHT22;8484;50.904;9.192;2023-04-24T13:29:30;10.60;99.90
16732;DHT22;8484;50.904;9.192;2023-04-24T13:31:59;10.60;99.90
16732;DHT22;8484;50.904;9.192;2023-04-24T13:34:27;10.50;99.90
16732;DHT22;8484;50.904;9.192;2023-04-24T13:36:55;10.30;99.90
16732;DHT22;8484;50.904;9.192;2023-04-24T13:39:24;10.30;99.90
16732;DHT22;8484;50.904;9.192;2023-04-24T13:41:51;10.30;99.90
16732;DHT22;8484;50.904;9.192;2023-04-24T13:44:19;10.30;99.90
16732;DHT22;8484;50.904;9.192;2023-04-24T13:46:48;10.40;99.90
16732;DHT22;8484;50.904;9.192;2023-04-24T13:49:17;10.60;99.90
16732;DHT22;8484;50.904;9.192;2023-04-24T13:51:45;10.50;99.90
16732;DHT22;8484;50.904;9.192;2023-04-24T13:54:12;10.30;99.90
16732;DHT22;8484;50.904;9.192;2023-04-24T13:56:40;10.50;99.90
16732;DHT22;8484;50.904;9.192;2023-04-24T13:59:07;10.60;99.90
16732;DHT22;8484;50.904;9.192;2023-04-24T14:01:34;10.90;99.90
16732;DHT22;8484;50.904;9.192;2023-04-24T14:04:02;11.00;99.90
16732;DHT22;8484;50.904;9.192;2023-04-24T14:06:31;10.90;99.90
16732;DHT22;8484;50.904;9.192;2023-04-24T14:08:58;10.70;99.90
16732;DHT22;8484;50.904;9.192;2023-04-24T14:11:26;10.50;99.90
16732;DHT22;8484;50.904;9.192;2023-04-24T14:13:55;10.30;99.90
16732;DHT22;8484;50.904;9.192;2023-04-24T14:16:23;10.20;99.90
16732;DHT22;8484;50.904;9.192;2023-04-24T14:18:50;10.00;99.90
16732;DHT22;8484;50.904;9.192;2023-04-24T14:21:17;10.20;99.90
16732;DHT22;8484;50.904;9.192;2023-04-24T14:23:45;10.30;99.90
16732;DHT22;8484;50.904;9.192;2023-04-24T14:26:12;10.70;99.90
16732;DHT22;8484;50.904;9.192;2023-04-24T14:28:39;10.70;99.90
16732;DHT22;8484;50.904;9.192;2023-04-24T14:31:06;10.50;99.90
16732;DHT22;8484;50.904;9.192;2023-04-24T14:33:33;10.40;99.90
16732;DHT22;8484;50.904;9.192;2023-04-24T14:36:00;10.30;99.90
16732;DHT22;8484;50.904;9.192;2023-04-24T14:38:28;10.60;99.90
16732;DHT22;8484;50.904;9.192;2023-04-24T14:40:56;10.60;99.90
16732;DHT22;8484;50.904;9.192;2023-04-24T14:43:23;11.10;99.90
16732;DHT22;8484;50.904;9.192;2023-04-24T14:45:50;11.00;99.90
16732;DHT22;8484;50.904;9.192;2023-04-24T14:48:18;11.50;99.90
16732;DHT22;8484;50.904;9.192;2023-04-24T14:50:46;11.80;99.90
16732;DHT22;8484;50.904;9.192;2023-04-24T14:53:13;11.90;99.90
16732;DHT22;8484;50.904;9.192;2023-04-24T14:55:41;11.90;99.90
16732;DHT22;8484;50.904;9.192;2023-04-24T14:58:10;12.30;99.90
16732;DHT22;8484;50.904;9.192;2023-04-24T15:00:37;11.60;99.90
16732;DHT22;8484;50.904;9.192;2023-04-24T15:03:04;11.30;99.90
16732;DHT22;8484;50.904;9.192;2023-04-24T15:05:31;11.30;99.90
16732;DHT22;8484;50.904;9.192;2023-04-24T15:07:58;11.30;99.90
16732;DHT22;8484;50.904;9.192;2023-04-24T15:10:25;10.90;99.90
16732;DHT22;8484;50.904;9.192;2023-04-24T15:12:52;10.90;99.90
16732;DHT22;8484;50.904;9.192;2023-04-24T15:15:21;10.90;99.90
16732;DHT22;8484;50.904;9.192;2023-04-24T15:17:51;10.80;99.90
16732;DHT22;8484;50.904;9.192;2023-04-24T15:20:18;10.80;99.90
16732;DHT22;8484;50.904;9.192;2023-04-24T15:22:45;10.70;99.90
16732;DHT22;8484;50.904;9.192;2023-04-24T15:25:12;10.80;99.90
16732;DHT22;8484;50.904;9.192;2023-04-24T15:27:40;10.90;99.90
16732;DHT22;8484;50.904;9.192;2023-04-24T15:30:08;10.90;99.90
16732;DHT22;8484;50.904;9.192;2023-04-24T15:32:37;11.10;99.90
16732;DHT22;8484;50.904;9.192;2023-04-24T15:35:04;11.10;99.90
16732;DHT22;8484;50.904;9.192;2023-04-24T15:37:31;11.40;99.90
16732;DHT22;8484;50.904;9.192;2023-04-24T15:39:59;11.90;99.90
16732;DHT22;8484;50.904;9.192;2023-04-24T15:42:26;12.20;99.90
16732;DHT22;8484;50.904;9.192;2023-04-24T15:44:53;12.20;99.90
16732;DHT22;8484;50.904;9.192;2023-04-24T15:47:20;12.30;99.90
16732;DHT22;8484;50.904;9.192;2023-04-24T15:49:48;11.70;99.90
16732;DHT22;8484;50.904;9.192;2023-04-24T15:52:15;11.70;99.90
16732;DHT22;8484;50.904;9.192;2023-04-24T15:54:42;11.50;99.90